Valle Di Nervion — IBPC — position and weather

sailwx.info

Track history (hours):
 
Tides and Currents Weather Stations Pressure Air Temp Water Temp Dewpoint Dewpoint Depression Visibility Wind Speed Wind Dir Waves Ship Positions

Valle Di Nervion

Last reported at 2016-Aug-27 00:22 UTC. Time now 2016-Aug-29 12:57 UTC.
Position N 36°50' E 016°18'.

Length 176 m; draft 7.1 m.

Type: Ship (hazmat cat D). MMSI: 247109500.

Date/timePositionNaut miles runAvg speedWind from/ knotsBaromVisibWave heightAir tempDewpointWater temp
2016-Aug-27 00:22N 36°50' E 016°18'  
2016-Aug-24 18:32N 37°28' E 015°37'1212.7
2016-Aug-24 17:33N 37°35' E 015°50'1312.9
2016-Aug-24 16:33N 37°43' E 016°03'444 9.5
2016-Aug-22 17:32N 44°45' E 012°58'1212.9
2016-Aug-22 16:34N 44°56' E 012°50'1312.9
2016-Aug-22 15:33N 45°07' E 012°41'1212.3
2016-Aug-22 14:33N 45°16' E 012°28'1110.8
2016-Aug-22 13:34N 45°21' E 012°15'1 0.0
2016-Aug-21 12:33N 45°21' E 012°16'6 5.9
2016-Aug-21 11:34N 45°19' E 012°24'2 2.0
2016-Aug-21 10:32N 45°19' E 012°27'0 0.0
2016-Aug-21 09:32N 45°19' E 012°27'0 0.0
2016-Aug-21 08:32N 45°19' E 012°27'0 0.0
2016-Aug-21 07:29N 45°19' E 012°27'0 0.0
2016-Aug-21 06:29N 45°19' E 012°27'0 0.0
2016-Aug-21 05:32N 45°19' E 012°27'0 0.2
2016-Aug-21 04:33N 45°19' E 012°27'7 7.2
2016-Aug-21 03:34N 45°15' E 012°35'1111.5
2016-Aug-21 02:34N 45°08' E 012°48'1111.1
2016-Aug-21 01:33N 44°58' E 012°54'1111.0
2016-Aug-21 00:32N 44°47' E 013°01'1211.4
2016-Aug-20 23:29N 44°36' E 013°06'1111.7
2016-Aug-20 22:33N 44°26' E 013°11'1211.8
2016-Aug-20 21:33N 44°15' E 013°19'1312.6
2016-Aug-20 20:33N 44°08' E 013°33'1212.5
2016-Aug-20 19:33N 44°00' E 013°47'1212.2
2016-Aug-20 18:33N 43°53' E 014°01'1212.3
2016-Aug-20 17:33N 43°48' E 014°16'1212.2
2016-Aug-20 16:33N 43°39' E 014°28'1212.1
2016-Aug-20 15:33N 43°30' E 014°40'333 9.5
2016-Aug-19 04:28N 38°09' E 016°36'1613.0
2016-Aug-19 03:16N 37°57' E 016°23'1212.9
2016-Aug-19 02:21N 37°48' E 016°13'1012.8
2016-Aug-19 01:32N 37°42' E 016°02'1212.4
2016-Aug-19 00:33N 37°34' E 015°50'1212.3
2016-Aug-18 23:32N 37°26' E 015°38'1211.9
2016-Aug-18 22:33N 37°19' E 015°27'  
Track history (hours):
 
Tides and Currents Weather Stations Pressure Air Temp Water Temp Dewpoint Dewpoint Depression Visibility Wind Speed Wind Dir Waves Ship Positions

Valle Di Nervion

Last reported at 2016-Aug-27 00:22 UTC. Time now 2016-Aug-29 12:57 UTC.
Position N 36°50' E 016°18'.

Length 176 m; draft 7.1 m.

Type: Ship (hazmat cat D). MMSI: 247109500.

Date/timePositionNaut miles runAvg speedWind from/ knotsBaromVisibWave heightAir tempDewpointWater temp
2016-Aug-27 00:22N 36°50' E 016°18'  
2016-Aug-24 18:32N 37°28' E 015°37'1212.7
2016-Aug-24 17:33N 37°35' E 015°50'1312.9
2016-Aug-24 16:33N 37°43' E 016°03'444 9.5
2016-Aug-22 17:32N 44°45' E 012°58'1212.9
2016-Aug-22 16:34N 44°56' E 012°50'1312.9
2016-Aug-22 15:33N 45°07' E 012°41'1212.3
2016-Aug-22 14:33N 45°16' E 012°28'1110.8
2016-Aug-22 13:34N 45°21' E 012°15'1 0.0
2016-Aug-21 12:33N 45°21' E 012°16'6 5.9
2016-Aug-21 11:34N 45°19' E 012°24'2 2.0
2016-Aug-21 10:32N 45°19' E 012°27'0 0.0
2016-Aug-21 09:32N 45°19' E 012°27'0 0.0
2016-Aug-21 08:32N 45°19' E 012°27'0 0.0
2016-Aug-21 07:29N 45°19' E 012°27'0 0.0
2016-Aug-21 06:29N 45°19' E 012°27'0 0.0
2016-Aug-21 05:32N 45°19' E 012°27'0 0.2
2016-Aug-21 04:33N 45°19' E 012°27'7 7.2
2016-Aug-21 03:34N 45°15' E 012°35'1111.5
2016-Aug-21 02:34N 45°08' E 012°48'1111.1
2016-Aug-21 01:33N 44°58' E 012°54'1111.0
2016-Aug-21 00:32N 44°47' E 013°01'1211.4
2016-Aug-20 23:29N 44°36' E 013°06'1111.7
2016-Aug-20 22:33N 44°26' E 013°11'1211.8
2016-Aug-20 21:33N 44°15' E 013°19'1312.6
2016-Aug-20 20:33N 44°08' E 013°33'1212.5
2016-Aug-20 19:33N 44°00' E 013°47'1212.2
2016-Aug-20 18:33N 43°53' E 014°01'1212.3
2016-Aug-20 17:33N 43°48' E 014°16'1212.2
2016-Aug-20 16:33N 43°39' E 014°28'1212.1
2016-Aug-20 15:33N 43°30' E 014°40'333 9.5
2016-Aug-19 04:28N 38°09' E 016°36'1613.0
2016-Aug-19 03:16N 37°57' E 016°23'1212.9
2016-Aug-19 02:21N 37°48' E 016°13'1012.8
2016-Aug-19 01:32N 37°42' E 016°02'1212.4
2016-Aug-19 00:33N 37°34' E 015°50'1212.3
2016-Aug-18 23:32N 37°26' E 015°38'1211.9
2016-Aug-18 22:33N 37°19' E 015°27'  

Dump ship's entire track history